sensor_id;sensor_type;location;lat;lon;timestamp;P1;durP1;ratioP1;P2;durP2;ratioP2
4377;SDS011;2203;53.686;9.994;2023-12-20T00:01:03;16.63;;;2.40;;
4377;SDS011;2203;53.686;9.994;2023-12-20T00:03:29;14.93;;;2.60;;
4377;SDS011;2203;53.686;9.994;2023-12-20T00:05:54;22.77;;;3.30;;
4377;SDS011;2203;53.686;9.994;2023-12-20T00:08:20;16.50;;;2.50;;
4377;SDS011;2203;53.686;9.994;2023-12-20T00:10:45;26.70;;;5.07;;
4377;SDS011;2203;53.686;9.994;2023-12-20T00:13:11;15.40;;;2.37;;
4377;SDS011;2203;53.686;9.994;2023-12-20T00:15:36;18.00;;;2.40;;
4377;SDS011;2203;53.686;9.994;2023-12-20T00:18:02;19.80;;;2.40;;
4377;SDS011;2203;53.686;9.994;2023-12-20T00:20:28;10.40;;;1.83;;
4377;SDS011;2203;53.686;9.994;2023-12-20T00:22:55;24.93;;;2.40;;
4377;SDS011;2203;53.686;9.994;2023-12-20T00:25:21;18.70;;;2.30;;
4377;SDS011;2203;53.686;9.994;2023-12-20T00:27:46;15.13;;;2.30;;
4377;SDS011;2203;53.686;9.994;2023-12-20T00:30:12;16.63;;;2.43;;
4377;SDS011;2203;53.686;9.994;2023-12-20T00:32:38;41.80;;;2.87;;
4377;SDS011;2203;53.686;9.994;2023-12-20T00:35:03;12.40;;;2.10;;
4377;SDS011;2203;53.686;9.994;2023-12-20T00:37:29;15.93;;;2.40;;
4377;SDS011;2203;53.686;9.994;2023-12-20T00:39:54;17.57;;;3.23;;
4377;SDS011;2203;53.686;9.994;2023-12-20T00:42:23;27.10;;;3.10;;
4377;SDS011;2203;53.686;9.994;2023-12-20T00:44:48;13.73;;;2.37;;
4377;SDS011;2203;53.686;9.994;2023-12-20T00:47:15;17.83;;;2.70;;
4377;SDS011;2203;53.686;9.994;2023-12-20T00:49:41;23.67;;;2.27;;
4377;SDS011;2203;53.686;9.994;2023-12-20T00:52:06;15.57;;;2.70;;
4377;SDS011;2203;53.686;9.994;2023-12-20T00:54:31;23.17;;;3.00;;
4377;SDS011;2203;53.686;9.994;2023-12-20T00:56:57;17.27;;;3.10;;
4377;SDS011;2203;53.686;9.994;2023-12-20T00:59:22;16.13;;;2.83;;
4377;SDS011;2203;53.686;9.994;2023-12-20T01:01:48;11.30;;;2.40;;
4377;SDS011;2203;53.686;9.994;2023-12-20T01:04:13;21.80;;;2.80;;
4377;SDS011;2203;53.686;9.994;2023-12-20T01:06:38;25.80;;;2.73;;
4377;SDS011;2203;53.686;9.994;2023-12-20T01:09:04;22.20;;;3.13;;
4377;SDS011;2203;53.686;9.994;2023-12-20T01:11:29;16.00;;;2.20;;
4377;SDS011;2203;53.686;9.994;2023-12-20T01:13:54;22.63;;;2.07;;
4377;SDS011;2203;53.686;9.994;2023-12-20T01:16:20;17.00;;;3.17;;
4377;SDS011;2203;53.686;9.994;2023-12-20T01:18:45;33.77;;;3.23;;
4377;SDS011;2203;53.686;9.994;2023-12-20T01:21:11;14.33;;;2.23;;
4377;SDS011;2203;53.686;9.994;2023-12-20T01:23:36;23.93;;;3.40;;
4377;SDS011;2203;53.686;9.994;2023-12-20T01:26:02;18.00;;;2.50;;
4377;SDS011;2203;53.686;9.994;2023-12-20T01:28:29;17.37;;;3.47;;
4377;SDS011;2203;53.686;9.994;2023-12-20T01:30:54;7.07;;;2.07;;
4377;SDS011;2203;53.686;9.994;2023-12-20T01:33:20;22.70;;;2.80;;
4377;SDS011;2203;53.686;9.994;2023-12-20T01:35:45;16.27;;;2.03;;
4377;SDS011;2203;53.686;9.994;2023-12-20T01:38:10;11.70;;;3.20;;
4377;SDS011;2203;53.686;9.994;2023-12-20T01:40:39;26.83;;;2.50;;
4377;SDS011;2203;53.686;9.994;2023-12-20T01:43:08;17.23;;;2.20;;
4377;SDS011;2203;53.686;9.994;2023-12-20T01:45:34;15.97;;;2.50;;
4377;SDS011;2203;53.686;9.994;2023-12-20T01:47:59;20.00;;;2.10;;
4377;SDS011;2203;53.686;9.994;2023-12-20T01:50:27;18.30;;;2.73;;
4377;SDS011;2203;53.686;9.994;2023-12-20T01:52:52;16.00;;;2.50;;
4377;SDS011;2203;53.686;9.994;2023-12-20T01:55:20;15.73;;;2.10;;
4377;SDS011;2203;53.686;9.994;2023-12-20T01:57:46;17.97;;;2.87;;
4377;SDS011;2203;53.686;9.994;2023-12-20T02:00:15;28.70;;;3.27;;
4377;SDS011;2203;53.686;9.994;2023-12-20T02:02:40;13.97;;;2.43;;
4377;SDS011;2203;53.686;9.994;2023-12-20T02:05:06;20.33;;;2.80;;
4377;SDS011;2203;53.686;9.994;2023-12-20T02:07:32;14.40;;;2.63;;
4377;SDS011;2203;53.686;9.994;2023-12-20T02:09:59;11.13;;;1.87;;
4377;SDS011;2203;53.686;9.994;2023-12-20T02:12:24;21.13;;;2.30;;
4377;SDS011;2203;53.686;9.994;2023-12-20T02:14:50;12.80;;;2.30;;
4377;SDS011;2203;53.686;9.994;2023-12-20T02:17:15;19.20;;;2.20;;
4377;SDS011;2203;53.686;9.994;2023-12-20T02:19:41;19.00;;;2.27;;
4377;SDS011;2203;53.686;9.994;2023-12-20T02:24:32;22.33;;;2.07;;
4377;SDS011;2203;53.686;9.994;2023-12-20T02:26:57;7.57;;;1.50;;
4377;SDS011;2203;53.686;9.994;2023-12-20T02:29:23;16.20;;;2.20;;
4377;SDS011;2203;53.686;9.994;2023-12-20T02:31:48;21.27;;;2.07;;
4377;SDS011;2203;53.686;9.994;2023-12-20T02:34:14;18.33;;;2.73;;
4377;SDS011;2203;53.686;9.994;2023-12-20T02:36:39;18.63;;;2.40;;
4377;SDS011;2203;53.686;9.994;2023-12-20T02:39:04;22.87;;;2.60;;
4377;SDS011;2203;53.686;9.994;2023-12-20T02:41:30;11.63;;;2.20;;
4377;SDS011;2203;53.686;9.994;2023-12-20T02:43:55;20.77;;;2.43;;
4377;SDS011;2203;53.686;9.994;2023-12-20T02:46:21;25.50;;;2.67;;
4377;SDS011;2203;53.686;9.994;2023-12-20T02:48:46;14.80;;;2.20;;
4377;SDS011;2203;53.686;9.994;2023-12-20T02:51:12;16.70;;;2.10;;
4377;SDS011;2203;53.686;9.994;2023-12-20T02:53:37;14.07;;;2.83;;
4377;SDS011;2203;53.686;9.994;2023-12-20T02:56:03;22.60;;;2.60;;
4377;SDS011;2203;53.686;9.994;2023-12-20T02:58:28;20.93;;;4.33;;
4377;SDS011;2203;53.686;9.994;2023-12-20T03:00:54;17.20;;;2.63;;
4377;SDS011;2203;53.686;9.994;2023-12-20T03:03:19;26.20;;;2.73;;
4377;SDS011;2203;53.686;9.994;2023-12-20T03:05:45;24.23;;;3.20;;
4377;SDS011;2203;53.686;9.994;2023-12-20T03:08:11;11.67;;;1.90;;
4377;SDS011;2203;53.686;9.994;2023-12-20T03:10:36;11.63;;;2.17;;
4377;SDS011;2203;53.686;9.994;2023-12-20T03:13:02;25.83;;;2.77;;
4377;SDS011;2203;53.686;9.994;2023-12-20T03:15:27;14.53;;;2.20;;
4377;SDS011;2203;53.686;9.994;2023-12-20T03:17:53;17.70;;;2.30;;
4377;SDS011;2203;53.686;9.994;2023-12-20T03:20:18;20.40;;;2.50;;
4377;SDS011;2203;53.686;9.994;2023-12-20T03:22:43;24.07;;;2.30;;
4377;SDS011;2203;53.686;9.994;2023-12-20T03:25:09;15.57;;;2.27;;
4377;SDS011;2203;53.686;9.994;2023-12-20T03:27:36;28.63;;;2.57;;
4377;SDS011;2203;53.686;9.994;2023-12-20T03:30:03;16.57;;;3.30;;
4377;SDS011;2203;53.686;9.994;2023-12-20T03:32:29;33.50;;;3.17;;
4377;SDS011;2203;53.686;9.994;2023-12-20T03:34:54;27.30;;;3.60;;
4377;SDS011;2203;53.686;9.994;2023-12-20T03:37:20;17.73;;;2.43;;
4377;SDS011;2203;53.686;9.994;2023-12-20T03:39:46;12.73;;;2.17;;
4377;SDS011;2203;53.686;9.994;2023-12-20T03:42:11;26.10;;;2.30;;
4377;SDS011;2203;53.686;9.994;2023-12-20T03:44:38;16.73;;;2.50;;
4377;SDS011;2203;53.686;9.994;2023-12-20T03:47:05;10.17;;;2.17;;
4377;SDS011;2203;53.686;9.994;2023-12-20T03:49:30;23.70;;;2.30;;
4377;SDS011;2203;53.686;9.994;2023-12-20T03:51:55;13.03;;;2.00;;
4377;SDS011;2203;53.686;9.994;2023-12-20T03:54:21;17.40;;;2.67;;
4377;SDS011;2203;53.686;9.994;2023-12-20T03:56:46;20.07;;;2.10;;
4377;SDS011;2203;53.686;9.994;2023-12-20T03:59:11;14.23;;;2.60;;
4377;SDS011;2203;53.686;9.994;2023-12-20T04:01:37;16.23;;;2.33;;
4377;SDS011;2203;53.686;9.994;2023-12-20T04:04:02;14.03;;;2.23;;
4377;SDS011;2203;53.686;9.994;2023-12-20T04:06:28;32.70;;;3.17;;
4377;SDS011;2203;53.686;9.994;2023-12-20T04:08:53;18.40;;;2.70;;
4377;SDS011;2203;53.686;9.994;2023-12-20T04:11:19;16.20;;;2.20;;
4377;SDS011;2203;53.686;9.994;2023-12-20T04:13:44;13.20;;;2.17;;
4377;SDS011;2203;53.686;9.994;2023-12-20T04:16:09;13.40;;;2.20;;
4377;SDS011;2203;53.686;9.994;2023-12-20T04:18:35;18.83;;;2.80;;
4377;SDS011;2203;53.686;9.994;2023-12-20T04:21:01;18.77;;;1.93;;
4377;SDS011;2203;53.686;9.994;2023-12-20T04:23:26;12.60;;;2.03;;
4377;SDS011;2203;53.686;9.994;2023-12-20T04:25:53;17.77;;;2.40;;
4377;SDS011;2203;53.686;9.994;2023-12-20T04:28:19;17.60;;;3.60;;
4377;SDS011;2203;53.686;9.994;2023-12-20T04:30:44;16.03;;;2.43;;
4377;SDS011;2203;53.686;9.994;2023-12-20T04:33:10;10.43;;;1.40;;
4377;SDS011;2203;53.686;9.994;2023-12-20T04:35:35;16.73;;;2.33;;
4377;SDS011;2203;53.686;9.994;2023-12-20T04:38:00;16.80;;;2.70;;
4377;SDS011;2203;53.686;9.994;2023-12-20T04:40:26;26.23;;;4.03;;
4377;SDS011;2203;53.686;9.994;2023-12-20T04:42:51;15.43;;;1.90;;
4377;SDS011;2203;53.686;9.994;2023-12-20T04:45:16;15.27;;;2.73;;
4377;SDS011;2203;53.686;9.994;2023-12-20T04:47:43;13.30;;;1.87;;
4377;SDS011;2203;53.686;9.994;2023-12-20T04:50:09;7.60;;;2.10;;
4377;SDS011;2203;53.686;9.994;2023-12-20T04:52:35;24.13;;;4.03;;
4377;SDS011;2203;53.686;9.994;2023-12-20T04:55:00;12.30;;;1.90;;
4377;SDS011;2203;53.686;9.994;2023-12-20T04:57:26;24.37;;;3.10;;
4377;SDS011;2203;53.686;9.994;2023-12-20T04:59:51;32.03;;;3.40;;
4377;SDS011;2203;53.686;9.994;2023-12-20T05:02:17;13.53;;;2.00;;
4377;SDS011;2203;53.686;9.994;2023-12-20T05:04:42;16.73;;;2.57;;
4377;SDS011;2203;53.686;9.994;2023-12-20T05:07:07;22.70;;;3.07;;
4377;SDS011;2203;53.686;9.994;2023-12-20T05:09:33;10.60;;;1.90;;
4377;SDS011;2203;53.686;9.994;2023-12-20T05:11:58;7.50;;;2.10;;
4377;SDS011;2203;53.686;9.994;2023-12-20T05:14:24;10.80;;;1.73;;
4377;SDS011;2203;53.686;9.994;2023-12-20T05:16:50;8.63;;;2.50;;
4377;SDS011;2203;53.686;9.994;2023-12-20T05:19:15;27.23;;;2.47;;
4377;SDS011;2203;53.686;9.994;2023-12-20T05:21:40;19.57;;;2.93;;
4377;SDS011;2203;53.686;9.994;2023-12-20T05:24:06;12.63;;;1.90;;
4377;SDS011;2203;53.686;9.994;2023-12-20T05:26:32;9.83;;;2.27;;
4377;SDS011;2203;53.686;9.994;2023-12-20T05:28:57;16.67;;;2.37;;
4377;SDS011;2203;53.686;9.994;2023-12-20T05:31:23;26.20;;;2.63;;
4377;SDS011;2203;53.686;9.994;2023-12-20T05:33:48;11.20;;;2.67;;
4377;SDS011;2203;53.686;9.994;2023-12-20T05:36:13;19.07;;;3.63;;
4377;SDS011;2203;53.686;9.994;2023-12-20T05:38:40;22.37;;;2.73;;
4377;SDS011;2203;53.686;9.994;2023-12-20T05:41:05;23.03;;;3.50;;
4377;SDS011;2203;53.686;9.994;2023-12-20T05:43:31;12.00;;;2.10;;
4377;SDS011;2203;53.686;9.994;2023-12-20T05:45:56;14.17;;;2.50;;
4377;SDS011;2203;53.686;9.994;2023-12-20T05:48:23;18.30;;;2.17;;
4377;SDS011;2203;53.686;9.994;2023-12-20T05:50:48;14.90;;;2.37;;
4377;SDS011;2203;53.686;9.994;2023-12-20T05:53:14;19.73;;;2.77;;
4377;SDS011;2203;53.686;9.994;2023-12-20T05:55:39;18.07;;;2.17;;
4377;SDS011;2203;53.686;9.994;2023-12-20T05:58:05;13.93;;;2.23;;
4377;SDS011;2203;53.686;9.994;2023-12-20T06:00:30;25.57;;;2.80;;
4377;SDS011;2203;53.686;9.994;2023-12-20T06:02:56;26.27;;;3.43;;
4377;SDS011;2203;53.686;9.994;2023-12-20T06:05:21;10.80;;;1.90;;
4377;SDS011;2203;53.686;9.994;2023-12-20T06:07:46;15.47;;;2.60;;
4377;SDS011;2203;53.686;9.994;2023-12-20T06:10:14;17.30;;;3.00;;
4377;SDS011;2203;53.686;9.994;2023-12-20T06:12:40;14.63;;;3.83;;
4377;SDS011;2203;53.686;9.994;2023-12-20T06:15:05;21.63;;;3.27;;
4377;SDS011;2203;53.686;9.994;2023-12-20T06:17:31;24.77;;;2.67;;
4377;SDS011;2203;53.686;9.994;2023-12-20T06:19:57;30.30;;;3.40;;
4377;SDS011;2203;53.686;9.994;2023-12-20T06:22:22;16.13;;;2.57;;
4377;SDS011;2203;53.686;9.994;2023-12-20T06:24:47;18.13;;;4.20;;
4377;SDS011;2203;53.686;9.994;2023-12-20T06:27:13;26.77;;;4.13;;
4377;SDS011;2203;53.686;9.994;2023-12-20T06:29:38;22.80;;;3.40;;
4377;SDS011;2203;53.686;9.994;2023-12-20T06:32:05;26.17;;;2.90;;
4377;SDS011;2203;53.686;9.994;2023-12-20T06:34:31;11.03;;;2.23;;
4377;SDS011;2203;53.686;9.994;2023-12-20T06:36:56;23.60;;;3.50;;
4377;SDS011;2203;53.686;9.994;2023-12-20T06:39:21;23.33;;;2.80;;
4377;SDS011;2203;53.686;9.994;2023-12-20T06:41:47;18.37;;;3.60;;
4377;SDS011;2203;53.686;9.994;2023-12-20T06:44:12;22.17;;;3.40;;
4377;SDS011;2203;53.686;9.994;2023-12-20T06:46:38;17.53;;;3.03;;
4377;SDS011;2203;53.686;9.994;2023-12-20T06:49:03;22.50;;;3.10;;
4377;SDS011;2203;53.686;9.994;2023-12-20T06:51:28;12.77;;;2.70;;
4377;SDS011;2203;53.686;9.994;2023-12-20T06:53:55;21.10;;;3.37;;
4377;SDS011;2203;53.686;9.994;2023-12-20T06:56:21;24.57;;;3.83;;
4377;SDS011;2203;53.686;9.994;2023-12-20T06:58:46;29.93;;;4.30;;
4377;SDS011;2203;53.686;9.994;2023-12-20T07:01:15;33.20;;;4.13;;
4377;SDS011;2203;53.686;9.994;2023-12-20T07:03:41;33.63;;;3.80;;
4377;SDS011;2203;53.686;9.994;2023-12-20T07:06:07;19.20;;;3.60;;
4377;SDS011;2203;53.686;9.994;2023-12-20T07:08:32;28.20;;;4.13;;
4377;SDS011;2203;53.686;9.994;2023-12-20T07:10:58;30.40;;;2.90;;
4377;SDS011;2203;53.686;9.994;2023-12-20T07:13:23;25.70;;;2.93;;
4377;SDS011;2203;53.686;9.994;2023-12-20T07:15:49;23.90;;;3.23;;
4377;SDS011;2203;53.686;9.994;2023-12-20T07:18:15;21.77;;;3.47;;
4377;SDS011;2203;53.686;9.994;2023-12-20T07:20:40;16.33;;;3.00;;
4377;SDS011;2203;53.686;9.994;2023-12-20T07:23:06;25.23;;;4.10;;
4377;SDS011;2203;53.686;9.994;2023-12-20T07:25:31;14.30;;;2.80;;
4377;SDS011;2203;53.686;9.994;2023-12-20T07:27:57;22.77;;;3.90;;
4377;SDS011;2203;53.686;9.994;2023-12-20T07:30:23;18.93;;;3.43;;
4377;SDS011;2203;53.686;9.994;2023-12-20T07:32:48;18.20;;;2.50;;
4377;SDS011;2203;53.686;9.994;2023-12-20T07:35:15;28.57;;;4.10;;
4377;SDS011;2203;53.686;9.994;2023-12-20T07:37:43;31.77;;;2.60;;
4377;SDS011;2203;53.686;9.994;2023-12-20T07:40:09;28.23;;;5.53;;
4377;SDS011;2203;53.686;9.994;2023-12-20T07:42:34;21.03;;;3.80;;
4377;SDS011;2203;53.686;9.994;2023-12-20T07:45:00;28.53;;;4.53;;
4377;SDS011;2203;53.686;9.994;2023-12-20T07:47:25;23.53;;;2.90;;
4377;SDS011;2203;53.686;9.994;2023-12-20T07:49:51;30.40;;;3.90;;
4377;SDS011;2203;53.686;9.994;2023-12-20T07:52:19;27.10;;;3.83;;
4377;SDS011;2203;53.686;9.994;2023-12-20T07:54:46;20.47;;;3.10;;
4377;SDS011;2203;53.686;9.994;2023-12-20T07:57:12;28.90;;;3.80;;
4377;SDS011;2203;53.686;9.994;2023-12-20T07:59:37;16.90;;;3.47;;
4377;SDS011;2203;53.686;9.994;2023-12-20T08:02:03;28.83;;;4.87;;
4377;SDS011;2203;53.686;9.994;2023-12-20T08:04:29;27.80;;;3.73;;
4377;SDS011;2203;53.686;9.994;2023-12-20T08:06:54;23.13;;;2.73;;
4377;SDS011;2203;53.686;9.994;2023-12-20T08:09:20;21.70;;;2.73;;
4377;SDS011;2203;53.686;9.994;2023-12-20T08:11:46;26.57;;;3.30;;
4377;SDS011;2203;53.686;9.994;2023-12-20T08:14:12;30.30;;;3.73;;
4377;SDS011;2203;53.686;9.994;2023-12-20T08:16:37;24.20;;;3.00;;
4377;SDS011;2203;53.686;9.994;2023-12-20T08:19:02;22.87;;;3.17;;
4377;SDS011;2203;53.686;9.994;2023-12-20T08:21:28;18.93;;;3.40;;
4377;SDS011;2203;53.686;9.994;2023-12-20T08:23:53;17.53;;;3.40;;
4377;SDS011;2203;53.686;9.994;2023-12-20T08:26:19;21.93;;;3.63;;
4377;SDS011;2203;53.686;9.994;2023-12-20T08:28:46;22.30;;;2.93;;
4377;SDS011;2203;53.686;9.994;2023-12-20T08:31:15;24.43;;;4.00;;
4377;SDS011;2203;53.686;9.994;2023-12-20T08:33:41;18.13;;;3.00;;
4377;SDS011;2203;53.686;9.994;2023-12-20T08:36:10;31.57;;;4.57;;
4377;SDS011;2203;53.686;9.994;2023-12-20T08:38:36;23.57;;;2.87;;
4377;SDS011;2203;53.686;9.994;2023-12-20T08:41:01;19.00;;;3.00;;
4377;SDS011;2203;53.686;9.994;2023-12-20T08:43:28;18.83;;;3.00;;
4377;SDS011;2203;53.686;9.994;2023-12-20T08:45:53;23.57;;;5.00;;
4377;SDS011;2203;53.686;9.994;2023-12-20T08:48:19;25.10;;;3.13;;
4377;SDS011;2203;53.686;9.994;2023-12-20T08:50:44;31.10;;;5.20;;
4377;SDS011;2203;53.686;9.994;2023-12-20T08:53:10;19.67;;;3.37;;
4377;SDS011;2203;53.686;9.994;2023-12-20T08:55:36;17.43;;;2.97;;
4377;SDS011;2203;53.686;9.994;2023-12-20T08:58:02;20.20;;;3.60;;
4377;SDS011;2203;53.686;9.994;2023-12-20T09:00:27;21.67;;;3.30;;
4377;SDS011;2203;53.686;9.994;2023-12-20T09:02:53;33.30;;;5.73;;
4377;SDS011;2203;53.686;9.994;2023-12-20T09:05:19;22.03;;;3.00;;
4377;SDS011;2203;53.686;9.994;2023-12-20T09:07:45;16.70;;;2.93;;
4377;SDS011;2203;53.686;9.994;2023-12-20T09:10:10;22.97;;;3.00;;
4377;SDS011;2203;53.686;9.994;2023-12-20T09:12:36;16.90;;;2.57;;
4377;SDS011;2203;53.686;9.994;2023-12-20T09:15:04;17.83;;;2.90;;
4377;SDS011;2203;53.686;9.994;2023-12-20T09:17:30;13.73;;;2.10;;
4377;SDS011;2203;53.686;9.994;2023-12-20T09:19:56;11.23;;;2.50;;
4377;SDS011;2203;53.686;9.994;2023-12-20T09:22:21;11.87;;;1.97;;
4377;SDS011;2203;53.686;9.994;2023-12-20T09:24:46;8.83;;;1.00;;
4377;SDS011;2203;53.686;9.994;2023-12-20T09:27:12;3.40;;;1.03;;
4377;SDS011;2203;53.686;9.994;2023-12-20T09:29:37;3.70;;;0.90;;
4377;SDS011;2203;53.686;9.994;2023-12-20T09:32:03;6.40;;;1.40;;
4377;SDS011;2203;53.686;9.994;2023-12-20T09:34:28;4.90;;;0.97;;
4377;SDS011;2203;53.686;9.994;2023-12-20T09:36:54;6.73;;;1.03;;
4377;SDS011;2203;53.686;9.994;2023-12-20T09:39:20;8.23;;;0.97;;
4377;SDS011;2203;53.686;9.994;2023-12-20T09:42:02;2.60;;;0.80;;
4377;SDS011;2203;53.686;9.994;2023-12-20T09:44:29;7.80;;;1.40;;
4377;SDS011;2203;53.686;9.994;2023-12-20T09:46:55;3.60;;;0.80;;
4377;SDS011;2203;53.686;9.994;2023-12-20T09:49:22;1.87;;;0.60;;
4377;SDS011;2203;53.686;9.994;2023-12-20T09:51:48;3.20;;;1.10;;
4377;SDS011;2203;53.686;9.994;2023-12-20T09:54:16;3.30;;;1.00;;
4377;SDS011;2203;53.686;9.994;2023-12-20T09:56:43;1.30;;;0.80;;
4377;SDS011;2203;53.686;9.994;2023-12-20T09:59:08;5.90;;;0.80;;
4377;SDS011;2203;53.686;9.994;2023-12-20T10:01:34;2.60;;;0.90;;
4377;SDS011;2203;53.686;9.994;2023-12-20T10:04:01;1.43;;;1.20;;
4377;SDS011;2203;53.686;9.994;2023-12-20T10:06:32;4.00;;;1.00;;
4377;SDS011;2203;53.686;9.994;2023-12-20T10:08:57;3.37;;;1.30;;
4377;SDS011;2203;53.686;9.994;2023-12-20T10:11:22;2.17;;;0.80;;
4377;SDS011;2203;53.686;9.994;2023-12-20T10:13:48;5.00;;;1.07;;
4377;SDS011;2203;53.686;9.994;2023-12-20T10:16:13;5.30;;;1.17;;
4377;SDS011;2203;53.686;9.994;2023-12-20T10:18:39;7.40;;;1.10;;
4377;SDS011;2203;53.686;9.994;2023-12-20T10:21:05;4.70;;;1.17;;
4377;SDS011;2203;53.686;9.994;2023-12-20T10:23:31;4.47;;;1.03;;
4377;SDS011;2203;53.686;9.994;2023-12-20T10:25:57;9.93;;;0.97;;
4377;SDS011;2203;53.686;9.994;2023-12-20T10:28:23;5.17;;;1.60;;
4377;SDS011;2203;53.686;9.994;2023-12-20T10:30:52;8.33;;;1.57;;
4377;SDS011;2203;53.686;9.994;2023-12-20T10:33:28;7.70;;;1.57;;
4377;SDS011;2203;53.686;9.994;2023-12-20T10:35:55;6.63;;;1.13;;
4377;SDS011;2203;53.686;9.994;2023-12-20T10:38:21;12.33;;;1.63;;
4377;SDS011;2203;53.686;9.994;2023-12-20T10:40:47;10.90;;;2.90;;
4377;SDS011;2203;53.686;9.994;2023-12-20T10:43:12;8.90;;;1.13;;
4377;SDS011;2203;53.686;9.994;2023-12-20T10:45:41;11.63;;;2.00;;
4377;SDS011;2203;53.686;9.994;2023-12-20T10:48:09;13.20;;;1.83;;
4377;SDS011;2203;53.686;9.994;2023-12-20T10:50:36;5.60;;;1.37;;
4377;SDS011;2203;53.686;9.994;2023-12-20T10:53:03;6.93;;;1.40;;
4377;SDS011;2203;53.686;9.994;2023-12-20T10:55:28;7.30;;;1.03;;
4377;SDS011;2203;53.686;9.994;2023-12-20T10:58:01;6.63;;;1.67;;
4377;SDS011;2203;53.686;9.994;2023-12-20T11:00:29;9.77;;;1.47;;
4377;SDS011;2203;53.686;9.994;2023-12-20T11:02:56;6.20;;;2.20;;
4377;SDS011;2203;53.686;9.994;2023-12-20T11:08:26;14.87;;;1.67;;
4377;SDS011;2203;53.686;9.994;2023-12-20T11:13:48;16.97;;;5.97;;
4377;SDS011;2203;53.686;9.994;2023-12-20T11:16:19;11.57;;;1.83;;
4377;SDS011;2203;53.686;9.994;2023-12-20T11:18:45;8.57;;;1.07;;
4377;SDS011;2203;53.686;9.994;2023-12-20T11:21:10;7.00;;;1.50;;
4377;SDS011;2203;53.686;9.994;2023-12-20T11:23:36;13.03;;;1.47;;
4377;SDS011;2203;53.686;9.994;2023-12-20T11:26:01;14.70;;;1.53;;
4377;SDS011;2203;53.686;9.994;2023-12-20T11:28:27;8.37;;;1.83;;
4377;SDS011;2203;53.686;9.994;2023-12-20T11:30:55;19.20;;;1.77;;
4377;SDS011;2203;53.686;9.994;2023-12-20T11:33:25;11.83;;;1.90;;
4377;SDS011;2203;53.686;9.994;2023-12-20T11:35:55;12.30;;;1.83;;
4377;SDS011;2203;53.686;9.994;2023-12-20T11:38:21;18.83;;;2.33;;
4377;SDS011;2203;53.686;9.994;2023-12-20T11:40:48;14.30;;;2.23;;
4377;SDS011;2203;53.686;9.994;2023-12-20T11:43:29;9.90;;;2.00;;
4377;SDS011;2203;53.686;9.994;2023-12-20T11:45:55;16.50;;;2.17;;
4377;SDS011;2203;53.686;9.994;2023-12-20T11:48:31;16.03;;;2.23;;
4377;SDS011;2203;53.686;9.994;2023-12-20T11:50:57;15.73;;;2.17;;
4377;SDS011;2203;53.686;9.994;2023-12-20T11:53:22;9.63;;;1.90;;
4377;SDS011;2203;53.686;9.994;2023-12-20T11:55:48;9.77;;;2.27;;
4377;SDS011;2203;53.686;9.994;2023-12-20T11:58:14;16.63;;;1.87;;
4377;SDS011;2203;53.686;9.994;2023-12-20T12:00:41;15.90;;;2.17;;
4377;SDS011;2203;53.686;9.994;2023-12-20T12:03:07;19.20;;;2.10;;
4377;SDS011;2203;53.686;9.994;2023-12-20T12:05:33;17.60;;;2.20;;
4377;SDS011;2203;53.686;9.994;2023-12-20T12:07:58;12.10;;;3.70;;
4377;SDS011;2203;53.686;9.994;2023-12-20T12:10:24;20.67;;;2.30;;
4377;SDS011;2203;53.686;9.994;2023-12-20T12:12:49;24.40;;;2.40;;
4377;SDS011;2203;53.686;9.994;2023-12-20T12:15:15;21.70;;;2.57;;
4377;SDS011;2203;53.686;9.994;2023-12-20T12:17:40;18.93;;;3.07;;
4377;SDS011;2203;53.686;9.994;2023-12-20T12:20:06;33.60;;;2.83;;
4377;SDS011;2203;53.686;9.994;2023-12-20T12:22:33;15.97;;;2.80;;
4377;SDS011;2203;53.686;9.994;2023-12-20T12:25:11;40.53;;;5.40;;
4377;SDS011;2203;53.686;9.994;2023-12-20T12:27:39;26.90;;;3.80;;
4377;SDS011;2203;53.686;9.994;2023-12-20T12:30:05;23.33;;;2.50;;
4377;SDS011;2203;53.686;9.994;2023-12-20T12:32:32;22.17;;;3.70;;
4377;SDS011;2203;53.686;9.994;2023-12-20T12:34:58;33.73;;;3.13;;
4377;SDS011;2203;53.686;9.994;2023-12-20T12:37:23;22.10;;;3.80;;
4377;SDS011;2203;53.686;9.994;2023-12-20T12:39:54;21.80;;;3.37;;
4377;SDS011;2203;53.686;9.994;2023-12-20T12:42:20;35.93;;;3.37;;
4377;SDS011;2203;53.686;9.994;2023-12-20T12:44:46;20.57;;;3.23;;
4377;SDS011;2203;53.686;9.994;2023-12-20T12:47:12;32.63;;;4.43;;
4377;SDS011;2203;53.686;9.994;2023-12-20T12:49:37;25.93;;;4.97;;
4377;SDS011;2203;53.686;9.994;2023-12-20T12:52:03;26.37;;;4.03;;
4377;SDS011;2203;53.686;9.994;2023-12-20T12:54:28;28.03;;;5.07;;
4377;SDS011;2203;53.686;9.994;2023-12-20T12:56:54;31.87;;;4.10;;
4377;SDS011;2203;53.686;9.994;2023-12-20T12:59:19;28.87;;;4.03;;
4377;SDS011;2203;53.686;9.994;2023-12-20T13:01:44;28.27;;;4.70;;
4377;SDS011;2203;53.686;9.994;2023-12-20T13:04:10;21.37;;;4.27;;
4377;SDS011;2203;53.686;9.994;2023-12-20T13:06:38;18.03;;;3.20;;
4377;SDS011;2203;53.686;9.994;2023-12-20T13:09:04;25.73;;;5.30;;
4377;SDS011;2203;53.686;9.994;2023-12-20T13:11:30;29.47;;;3.40;;
4377;SDS011;2203;53.686;9.994;2023-12-20T13:13:56;24.97;;;4.00;;
4377;SDS011;2203;53.686;9.994;2023-12-20T13:16:22;29.27;;;3.47;;
4377;SDS011;2203;53.686;9.994;2023-12-20T13:18:51;27.83;;;5.17;;
4377;SDS011;2203;53.686;9.994;2023-12-20T13:21:16;18.30;;;2.60;;
4377;SDS011;2203;53.686;9.994;2023-12-20T13:23:45;17.03;;;2.90;;
4377;SDS011;2203;53.686;9.994;2023-12-20T13:26:10;30.07;;;3.50;;
4377;SDS011;2203;53.686;9.994;2023-12-20T13:28:35;31.90;;;4.20;;
4377;SDS011;2203;53.686;9.994;2023-12-20T13:31:01;27.67;;;4.57;;
4377;SDS011;2203;53.686;9.994;2023-12-20T13:33:26;22.20;;;3.00;;
4377;SDS011;2203;53.686;9.994;2023-12-20T13:35:52;27.53;;;4.57;;
4377;SDS011;2203;53.686;9.994;2023-12-20T13:38:17;31.73;;;3.40;;
4377;SDS011;2203;53.686;9.994;2023-12-20T13:40:43;47.80;;;4.50;;
4377;SDS011;2203;53.686;9.994;2023-12-20T13:43:08;38.90;;;4.50;;
4377;SDS011;2203;53.686;9.994;2023-12-20T13:45:34;21.63;;;4.90;;
4377;SDS011;2203;53.686;9.994;2023-12-20T13:47:59;33.23;;;5.17;;
4377;SDS011;2203;53.686;9.994;2023-12-20T13:50:25;38.07;;;4.37;;
4377;SDS011;2203;53.686;9.994;2023-12-20T13:52:51;25.40;;;5.10;;
4377;SDS011;2203;53.686;9.994;2023-12-20T13:55:16;24.50;;;4.10;;
4377;SDS011;2203;53.686;9.994;2023-12-20T13:57:42;27.03;;;4.00;;
4377;SDS011;2203;53.686;9.994;2023-12-20T14:00:07;15.90;;;4.30;;
4377;SDS011;2203;53.686;9.994;2023-12-20T14:02:39;23.97;;;4.20;;
4377;SDS011;2203;53.686;9.994;2023-12-20T14:05:05;21.37;;;3.70;;
4377;SDS011;2203;53.686;9.994;2023-12-20T14:07:31;26.73;;;4.37;;
4377;SDS011;2203;53.686;9.994;2023-12-20T14:09:57;32.63;;;4.20;;
4377;SDS011;2203;53.686;9.994;2023-12-20T14:12:24;26.83;;;4.60;;
4377;SDS011;2203;53.686;9.994;2023-12-20T14:14:50;31.70;;;3.90;;
4377;SDS011;2203;53.686;9.994;2023-12-20T14:17:15;17.63;;;3.40;;
4377;SDS011;2203;53.686;9.994;2023-12-20T14:19:40;29.07;;;3.90;;
4377;SDS011;2203;53.686;9.994;2023-12-20T14:22:06;25.00;;;4.30;;
4377;SDS011;2203;53.686;9.994;2023-12-20T14:24:31;26.83;;;4.13;;
4377;SDS011;2203;53.686;9.994;2023-12-20T14:26:57;18.00;;;4.00;;
4377;SDS011;2203;53.686;9.994;2023-12-20T14:29:23;27.67;;;4.10;;
4377;SDS011;2203;53.686;9.994;2023-12-20T14:31:49;37.90;;;7.20;;
4377;SDS011;2203;53.686;9.994;2023-12-20T14:34:14;24.37;;;4.03;;
4377;SDS011;2203;53.686;9.994;2023-12-20T14:36:40;22.97;;;4.20;;
4377;SDS011;2203;53.686;9.994;2023-12-20T14:39:06;26.93;;;3.70;;
4377;SDS011;2203;53.686;9.994;2023-12-20T14:41:33;31.07;;;5.10;;
4377;SDS011;2203;53.686;9.994;2023-12-20T14:43:59;19.07;;;3.97;;
4377;SDS011;2203;53.686;9.994;2023-12-20T14:46:29;32.83;;;3.97;;
4377;SDS011;2203;53.686;9.994;2023-12-20T14:48:55;20.13;;;3.40;;
4377;SDS011;2203;53.686;9.994;2023-12-20T14:51:21;25.73;;;4.13;;
4377;SDS011;2203;53.686;9.994;2023-12-20T14:53:46;18.67;;;5.30;;
4377;SDS011;2203;53.686;9.994;2023-12-20T14:56:12;29.30;;;4.50;;
4377;SDS011;2203;53.686;9.994;2023-12-20T14:58:37;46.30;;;7.00;;
4377;SDS011;2203;53.686;9.994;2023-12-20T15:01:03;32.80;;;5.67;;
4377;SDS011;2203;53.686;9.994;2023-12-20T15:03:29;31.13;;;4.47;;